Orienta, Oklahoma
Current Conditions -  °F | °C
As of 1:55 PM on Sunday 23 Nov 2014 (Local Time) from KJWG Reporting Station
Broken Clouds Broken Clouds  
Wind Chill: 55°   Ceiling: 4000
Heat Index: 55°   Visibility: 10mi
Dew Point: 46°   Wind: 22mph
Humidity: 73%   Direction: 320°NW
Pressure: 29.4"   Gusts: 40mph
Location:  36.2837°N, 98.6091°W
Report Text: KJWG 231955Z AUTO 32019G35KT 10SM SCT035 BKN040 BKN046 13/08 A2940 RMK AO2 T01280080
Loading
Personal Weather Stations






























Interactive Weather Map New forecast layout! Learn more

10-Day Weather Forecast

Advertisements
Track Severe Weather on mobile